NKS1833 KDTW-KDFW
Flight info
| Callsign | NKS1833 |
|---|---|
| Flight time | 2h 30m |
| Altitude | 32000 |
| Route | SNDRS3 BGHRT STL RZC FSM RRNET SEEVR4 |
| Aircraft | A320/M-SDE3FGHIRWY/LB1 |
Departure
| Time | 2026-05-05 18:28 |
|---|---|
| Airport | Detroit Metropolitan Wayne County Airport (KDTW) |
Arrival
| Time | 2026-05-05 20:59 |
|---|---|
| Airport | Dallas Fort Worth International Airport (KDFW) |
| Time | Latitude | Longitude | Altitude | Speed | Heading |
|---|---|---|---|---|---|
| 2026-05-05 17:39 | 42.22448 | -83.35011 | 646 ft | 0 kts | 119° |
| 2026-05-05 18:09 | 42.22449 | -83.35012 | 627 ft | 1 kts | 119° |
| 2026-05-05 18:09 | 42.22461 | -83.35041 | 646 ft | 4 kts | 118° |
| 2026-05-05 18:09 | 42.22471 | -83.35066 | 646 ft | 4 kts | 124° |
| 2026-05-05 18:10 | 42.22486 | -83.35082 | 646 ft | 4 kts | 198° |
| 2026-05-05 18:10 | 42.22493 | -83.35079 | 646 ft | 3 kts | 208° |
| 2026-05-05 18:10 | 42.22509 | -83.35067 | 647 ft | 1 kts | 208° |
| 2026-05-05 18:16 | 42.22508 | -83.35068 | 647 ft | 1 kts | 210° |
| 2026-05-05 18:16 | 42.22512 | -83.35107 | 649 ft | 7 kts | 305° |
| 2026-05-05 18:16 | 42.22503 | -83.35175 | 646 ft | 9 kts | 225° |
| 2026-05-05 18:17 | 42.22445 | -83.35219 | 647 ft | 10 kts | 209° |
| 2026-05-05 18:17 | 42.22378 | -83.35268 | 646 ft | 12 kts | 209° |
| 2026-05-05 18:17 | 42.22302 | -83.35331 | 646 ft | 14 kts | 219° |
| 2026-05-05 18:17 | 42.22218 | -83.35406 | 646 ft | 15 kts | 203° |
| 2026-05-05 18:18 | 42.22119 | -83.35474 | 646 ft | 17 kts | 208° |
| 2026-05-05 18:18 | 42.22011 | -83.35554 | 645 ft | 18 kts | 209° |
| 2026-05-05 18:18 | 42.21914 | -83.35578 | 645 ft | 13 kts | 153° |
| 2026-05-05 18:18 | 42.21843 | -83.35514 | 646 ft | 10 kts | 139° |
| 2026-05-05 18:19 | 42.21835 | -83.35419 | 645 ft | 11 kts | 92° |
| 2026-05-05 18:19 | 42.21822 | -83.35314 | 645 ft | 12 kts | 86° |
| 2026-05-05 18:19 | 42.21826 | -83.35194 | 646 ft | 13 kts | 89° |
| 2026-05-05 18:19 | 42.21828 | -83.35068 | 646 ft | 14 kts | 89° |
| 2026-05-05 18:20 | 42.21830 | -83.34934 | 646 ft | 15 kts | 88° |
| 2026-05-05 18:20 | 42.21833 | -83.34790 | 646 ft | 16 kts | 88° |
| 2026-05-05 18:20 | 42.21837 | -83.34635 | 647 ft | 17 kts | 88° |
| 2026-05-05 18:20 | 42.21865 | -83.34495 | 647 ft | 16 kts | 35° |
| 2026-05-05 18:21 | 42.21967 | -83.34418 | 646 ft | 18 kts | 27° |
| 2026-05-05 18:21 | 42.22078 | -83.34337 | 646 ft | 19 kts | 29° |
| 2026-05-05 18:21 | 42.22198 | -83.34248 | 645 ft | 20 kts | 28° |
| 2026-05-05 18:21 | 42.22327 | -83.34155 | 646 ft | 22 kts | 28° |
| 2026-05-05 18:22 | 42.22463 | -83.34053 | 646 ft | 23 kts | 30° |
| 2026-05-05 18:22 | 42.22608 | -83.33948 | 646 ft | 24 kts | 30° |
| 2026-05-05 18:22 | 42.22751 | -83.33842 | 646 ft | 22 kts | 28° |
| 2026-05-05 18:22 | 42.22860 | -83.33762 | 646 ft | 7 kts | 34° |
| 2026-05-05 18:23 | 42.22858 | -83.33715 | 647 ft | 0 kts | 114° |
| 2026-05-05 18:27 | 42.22841 | -83.33671 | 646 ft | 11 kts | 118° |
| 2026-05-05 18:27 | 42.22809 | -83.33628 | 645 ft | 5 kts | 207° |
| 2026-05-05 18:27 | 42.22801 | -83.33635 | 645 ft | 0 kts | 212° |
| 2026-05-05 18:27 | 42.22788 | -83.33645 | 645 ft | 20 kts | 209° |
| 2026-05-05 18:28 | 42.21651 | -83.34484 | 649 ft | 154 kts | 208° |
| 2026-05-05 18:28 | 42.20611 | -83.35229 | 1018 ft | 174 kts | 211° |
| 2026-05-05 18:28 | 42.19546 | -83.36008 | 1877 ft | 173 kts | 213° |
| 2026-05-05 18:29 | 42.18424 | -83.36624 | 2623 ft | 180 kts | 201° |
| 2026-05-05 18:29 | 42.17144 | -83.37123 | 3058 ft | 203 kts | 200° |
| 2026-05-05 18:29 | 42.15713 | -83.37671 | 3555 ft | 224 kts | 200° |
| 2026-05-05 18:29 | 42.14166 | -83.38261 | 3978 ft | 245 kts | 200° |
| 2026-05-05 18:30 | 42.12492 | -83.38894 | 4650 ft | 252 kts | 201° |
| 2026-05-05 18:30 | 42.10804 | -83.39521 | 5549 ft | 250 kts | 201° |
| 2026-05-05 18:30 | 42.09138 | -83.40137 | 6475 ft | 248 kts | 202° |
| 2026-05-05 18:30 | 42.07518 | -83.40891 | 6851 ft | 243 kts | 211° |
| 2026-05-05 18:31 | 42.06103 | -83.42069 | 6980 ft | 238 kts | 220° |
| 2026-05-05 18:31 | 42.04773 | -83.43386 | 7005 ft | 237 kts | 220° |
| 2026-05-05 18:31 | 42.03444 | -83.44695 | 7016 ft | 237 kts | 220° |
| 2026-05-05 18:31 | 42.02112 | -83.46006 | 7019 ft | 237 kts | 220° |
| 2026-05-05 18:32 | 42.00798 | -83.47296 | 7005 ft | 237 kts | 220° |
| 2026-05-05 18:32 | 41.99468 | -83.48601 | 7013 ft | 237 kts | 220° |
| 2026-05-05 18:32 | 41.98140 | -83.49920 | 7141 ft | 240 kts | 220° |
| 2026-05-05 18:32 | 41.96815 | -83.51286 | 7953 ft | 240 kts | 221° |
| 2026-05-05 18:33 | 41.95494 | -83.52659 | 8764 ft | 241 kts | 221° |
| 2026-05-05 18:33 | 41.94164 | -83.54041 | 9554 ft | 243 kts | 222° |
| 2026-05-05 18:33 | 41.92818 | -83.55433 | 10246 ft | 247 kts | 222° |
| 2026-05-05 18:33 | 41.91402 | -83.56902 | 10450 ft | 269 kts | 222° |
| 2026-05-05 18:34 | 41.89887 | -83.58478 | 10576 ft | 290 kts | 221° |
| 2026-05-05 18:34 | 41.88233 | -83.60193 | 10711 ft | 310 kts | 221° |
| 2026-05-05 18:34 | 41.86494 | -83.61987 | 11110 ft | 319 kts | 221° |
| 2026-05-05 18:34 | 41.84716 | -83.63812 | 11676 ft | 324 kts | 221° |
| 2026-05-05 18:35 | 41.82915 | -83.65656 | 12266 ft | 327 kts | 221° |
| 2026-05-05 18:35 | 41.81098 | -83.67517 | 12833 ft | 331 kts | 221° |
| 2026-05-05 18:35 | 41.79257 | -83.69401 | 13390 ft | 335 kts | 220° |
| 2026-05-05 18:35 | 41.77392 | -83.71310 | 13913 ft | 339 kts | 220° |
| 2026-05-05 18:36 | 41.75531 | -83.73210 | 14430 ft | 342 kts | 220° |
| 2026-05-05 18:36 | 41.73631 | -83.75150 | 14954 ft | 345 kts | 220° |
| 2026-05-05 18:36 | 41.71718 | -83.77111 | 15491 ft | 348 kts | 221° |
| 2026-05-05 18:36 | 41.69776 | -83.79061 | 16019 ft | 352 kts | 217° |
| 2026-05-05 18:37 | 41.67677 | -83.80784 | 16559 ft | 355 kts | 215° |
| 2026-05-05 18:37 | 41.65551 | -83.82495 | 17121 ft | 358 kts | 215° |
| 2026-05-05 18:37 | 41.63402 | -83.84215 | 17687 ft | 361 kts | 215° |
| 2026-05-05 18:37 | 41.61237 | -83.85946 | 18242 ft | 364 kts | 215° |
| 2026-05-05 18:38 | 41.59086 | -83.87669 | 18711 ft | 367 kts | 215° |
| 2026-05-05 18:38 | 41.56888 | -83.89432 | 19208 ft | 370 kts | 215° |
| 2026-05-05 18:38 | 41.54675 | -83.91209 | 19710 ft | 372 kts | 216° |
| 2026-05-05 18:38 | 41.52446 | -83.92998 | 20181 ft | 375 kts | 216° |
| 2026-05-05 18:39 | 41.50198 | -83.94799 | 20630 ft | 378 kts | 216° |
| 2026-05-05 18:39 | 41.47933 | -83.96607 | 21054 ft | 381 kts | 216° |
| 2026-05-05 18:39 | 41.45649 | -83.98427 | 21458 ft | 384 kts | 216° |
| 2026-05-05 18:39 | 41.43351 | -84.00258 | 21848 ft | 386 kts | 216° |
| 2026-05-05 18:40 | 41.41069 | -84.02074 | 22217 ft | 388 kts | 216° |
| 2026-05-05 18:40 | 41.38741 | -84.03927 | 22532 ft | 392 kts | 216° |
| 2026-05-05 18:40 | 41.36395 | -84.05798 | 22869 ft | 395 kts | 216° |
| 2026-05-05 18:40 | 41.34029 | -84.07681 | 23222 ft | 398 kts | 216° |
| 2026-05-05 18:41 | 41.31645 | -84.09574 | 23553 ft | 400 kts | 217° |
| 2026-05-05 18:41 | 41.29251 | -84.11478 | 23861 ft | 401 kts | 218° |
| 2026-05-05 18:41 | 41.27038 | -84.13683 | 24173 ft | 396 kts | 227° |
| 2026-05-05 18:41 | 41.25182 | -84.16352 | 24481 ft | 392 kts | 236° |
| 2026-05-05 18:42 | 41.23740 | -84.19350 | 24792 ft | 390 kts | 245° |
| 2026-05-05 18:42 | 41.22667 | -84.22648 | 25095 ft | 390 kts | 250° |
| 2026-05-05 18:42 | 41.21675 | -84.26005 | 25402 ft | 391 kts | 249° |
| 2026-05-05 18:42 | 41.20674 | -84.29369 | 25706 ft | 392 kts | 249° |
| 2026-05-05 18:43 | 41.19668 | -84.32730 | 26119 ft | 390 kts | 249° |
| 2026-05-05 18:43 | 41.18666 | -84.36068 | 26599 ft | 388 kts | 249° |
| 2026-05-05 18:43 | 41.17667 | -84.39389 | 27115 ft | 386 kts | 249° |
| 2026-05-05 18:43 | 41.16674 | -84.42684 | 27572 ft | 384 kts | 249° |
| 2026-05-05 18:44 | 41.15698 | -84.45922 | 28032 ft | 382 kts | 249° |
| 2026-05-05 18:44 | 41.14712 | -84.49186 | 28497 ft | 380 kts | 249° |
| 2026-05-05 18:44 | 41.13732 | -84.52430 | 28966 ft | 378 kts | 249° |
| 2026-05-05 18:44 | 41.12758 | -84.55657 | 29440 ft | 376 kts | 249° |
| 2026-05-05 18:45 | 41.11787 | -84.58866 | 29920 ft | 374 kts | 249° |
| 2026-05-05 18:45 | 41.10819 | -84.62056 | 30330 ft | 372 kts | 249° |
| 2026-05-05 18:45 | 41.10007 | -84.65296 | 30723 ft | 370 kts | 256° |
| 2026-05-05 18:45 | 41.09446 | -84.68617 | 31118 ft | 368 kts | 257° |
| 2026-05-05 18:46 | 41.08893 | -84.71927 | 31512 ft | 367 kts | 257° |
| 2026-05-05 18:46 | 41.08351 | -84.75181 | 31811 ft | 367 kts | 258° |
| 2026-05-05 18:46 | 41.07230 | -84.81861 | 31886 ft | 378 kts | 257° |
| 2026-05-05 18:47 | 41.06064 | -84.88732 | 31894 ft | 384 kts | 257° |
| 2026-05-05 18:47 | 41.04881 | -84.95644 | 31900 ft | 385 kts | 257° |
| 2026-05-05 18:48 | 41.03707 | -85.02516 | 31894 ft | 385 kts | 257° |
| 2026-05-05 18:48 | 41.02521 | -85.09430 | 31852 ft | 384 kts | 258° |
| 2026-05-05 18:49 | 41.01333 | -85.16334 | 31863 ft | 385 kts | 258° |
| 2026-05-05 18:49 | 41.00132 | -85.23254 | 31872 ft | 386 kts | 258° |
| 2026-05-05 18:50 | 40.98933 | -85.30136 | 31879 ft | 387 kts | 258° |
| 2026-05-05 18:50 | 40.97730 | -85.37070 | 31884 ft | 387 kts | 258° |
| 2026-05-05 18:51 | 40.96517 | -85.44017 | 31909 ft | 387 kts | 259° |
| 2026-05-05 18:51 | 40.95302 | -85.50945 | 31916 ft | 386 kts | 259° |
| 2026-05-05 18:52 | 40.94087 | -85.57842 | 31915 ft | 385 kts | 259° |
| 2026-05-05 18:52 | 40.92880 | -85.64681 | 31912 ft | 384 kts | 259° |
| 2026-05-05 18:53 | 40.91659 | -85.71550 | 31907 ft | 384 kts | 259° |
| 2026-05-05 18:53 | 40.90440 | -85.78414 | 31902 ft | 383 kts | 259° |
| 2026-05-05 18:54 | 40.89216 | -85.85276 | 31897 ft | 383 kts | 259° |
| 2026-05-05 18:54 | 40.88186 | -85.92123 | 31903 ft | 382 kts | 263° |
| 2026-05-05 18:55 | 40.87449 | -85.99078 | 31903 ft | 382 kts | 263° |
| 2026-05-05 18:55 | 40.86709 | -86.06033 | 31904 ft | 382 kts | 263° |
| 2026-05-05 18:56 | 40.85958 | -86.12990 | 31903 ft | 383 kts | 263° |
| 2026-05-05 18:56 | 40.85206 | -86.19896 | 31929 ft | 382 kts | 263° |
| 2026-05-05 18:57 | 40.84444 | -86.26824 | 31879 ft | 380 kts | 264° |
| 2026-05-05 18:57 | 40.83685 | -86.33725 | 31887 ft | 379 kts | 264° |
| 2026-05-05 18:58 | 40.82925 | -86.40620 | 31890 ft | 379 kts | 264° |
| 2026-05-05 18:58 | 40.82165 | -86.47455 | 31890 ft | 379 kts | 264° |
| 2026-05-05 18:59 | 40.81407 | -86.54335 | 31902 ft | 379 kts | 264° |
| 2026-05-05 18:59 | 40.80639 | -86.61205 | 31919 ft | 378 kts | 264° |
| 2026-05-05 19:00 | 40.79867 | -86.68045 | 31920 ft | 376 kts | 264° |
| 2026-05-05 19:00 | 40.79103 | -86.74816 | 31919 ft | 375 kts | 264° |
| 2026-05-05 19:01 | 40.78333 | -86.81621 | 31923 ft | 375 kts | 264° |
| 2026-05-05 19:01 | 40.77554 | -86.88416 | 31923 ft | 374 kts | 264° |
| 2026-05-05 19:02 | 40.76771 | -86.95202 | 31934 ft | 374 kts | 264° |
| 2026-05-05 19:02 | 40.75984 | -87.01982 | 31928 ft | 374 kts | 264° |
| 2026-05-05 19:03 | 40.75205 | -87.08707 | 31921 ft | 373 kts | 264° |
| 2026-05-05 19:03 | 40.74412 | -87.15471 | 31918 ft | 373 kts | 264° |
| 2026-05-05 19:04 | 40.73615 | -87.22237 | 31918 ft | 373 kts | 264° |
| 2026-05-05 19:04 | 40.72815 | -87.29000 | 31916 ft | 373 kts | 263° |
| 2026-05-05 19:05 | 40.72008 | -87.35757 | 31916 ft | 373 kts | 263° |
| 2026-05-05 19:05 | 40.71210 | -87.42454 | 31919 ft | 372 kts | 263° |
| 2026-05-05 19:06 | 40.70405 | -87.49176 | 31921 ft | 371 kts | 263° |
| 2026-05-05 19:06 | 40.69598 | -87.55886 | 31918 ft | 371 kts | 263° |
| 2026-05-05 19:07 | 40.68787 | -87.62591 | 31918 ft | 371 kts | 263° |
| 2026-05-05 19:07 | 40.67973 | -87.69251 | 31916 ft | 371 kts | 263° |
| 2026-05-05 19:08 | 40.67149 | -87.75946 | 31923 ft | 370 kts | 263° |
| 2026-05-05 19:08 | 40.66329 | -87.82626 | 31925 ft | 369 kts | 263° |
| 2026-05-05 19:09 | 40.65492 | -87.89288 | 31922 ft | 369 kts | 261° |
| 2026-05-05 19:09 | 40.63433 | -87.95492 | 31921 ft | 382 kts | 242° |
| 2026-05-05 19:10 | 40.59924 | -88.00862 | 31920 ft | 388 kts | 237° |
| 2026-05-05 19:10 | 40.56338 | -88.06173 | 31917 ft | 388 kts | 237° |
| 2026-05-05 19:11 | 40.52753 | -88.11476 | 31921 ft | 388 kts | 237° |
| 2026-05-05 19:11 | 40.49194 | -88.16729 | 31945 ft | 387 kts | 237° |
| 2026-05-05 19:12 | 40.45616 | -88.22003 | 31915 ft | 386 kts | 237° |
| 2026-05-05 19:12 | 40.42032 | -88.27271 | 31916 ft | 387 kts | 237° |
| 2026-05-05 19:13 | 40.38435 | -88.32546 | 31919 ft | 388 kts | 237° |
| 2026-05-05 19:13 | 40.34829 | -88.37828 | 31919 ft | 389 kts | 237° |
| 2026-05-05 19:14 | 40.31242 | -88.43077 | 31925 ft | 389 kts | 237° |
| 2026-05-05 19:14 | 40.27623 | -88.48362 | 31922 ft | 389 kts | 237° |
| 2026-05-05 19:15 | 40.24009 | -88.53632 | 31900 ft | 389 kts | 237° |
| 2026-05-05 19:15 | 40.20395 | -88.58889 | 31897 ft | 389 kts | 238° |
| 2026-05-05 19:16 | 40.16805 | -88.64110 | 31900 ft | 389 kts | 237° |
| 2026-05-05 19:16 | 40.13185 | -88.69364 | 31902 ft | 389 kts | 237° |
| 2026-05-05 19:17 | 40.09558 | -88.74614 | 31903 ft | 389 kts | 237° |
| 2026-05-05 19:17 | 40.05931 | -88.79862 | 31922 ft | 389 kts | 237° |
| 2026-05-05 19:18 | 40.02299 | -88.85100 | 31883 ft | 390 kts | 237° |
| 2026-05-05 19:18 | 39.98680 | -88.90304 | 31904 ft | 390 kts | 238° |
| 2026-05-05 19:19 | 39.95032 | -88.95549 | 31915 ft | 391 kts | 238° |
| 2026-05-05 19:19 | 39.91383 | -89.00792 | 31920 ft | 390 kts | 238° |
| 2026-05-05 19:20 | 39.87729 | -89.06031 | 31923 ft | 391 kts | 238° |
| 2026-05-05 19:20 | 39.84091 | -89.11225 | 31922 ft | 391 kts | 237° |
| 2026-05-05 19:21 | 39.80427 | -89.16456 | 31929 ft | 391 kts | 238° |
| 2026-05-05 19:21 | 39.76765 | -89.21679 | 31905 ft | 391 kts | 238° |
| 2026-05-05 19:22 | 39.73097 | -89.26902 | 31930 ft | 391 kts | 238° |
| 2026-05-05 19:22 | 39.69427 | -89.32117 | 31946 ft | 391 kts | 238° |
| 2026-05-05 19:23 | 39.65781 | -89.37290 | 31955 ft | 391 kts | 238° |
| 2026-05-05 19:23 | 39.62110 | -89.42487 | 31961 ft | 391 kts | 238° |
| 2026-05-05 19:24 | 39.58435 | -89.47679 | 31963 ft | 391 kts | 237° |
| 2026-05-05 19:24 | 39.54755 | -89.52869 | 31926 ft | 391 kts | 237° |
| 2026-05-05 19:25 | 39.51073 | -89.58060 | 31938 ft | 391 kts | 237° |
| 2026-05-05 19:25 | 39.47411 | -89.63218 | 31937 ft | 392 kts | 237° |
| 2026-05-05 19:26 | 39.43716 | -89.68404 | 31940 ft | 392 kts | 237° |
| 2026-05-05 19:26 | 39.40016 | -89.73585 | 31946 ft | 392 kts | 237° |
| 2026-05-05 19:27 | 39.36320 | -89.78765 | 31943 ft | 392 kts | 237° |
| 2026-05-05 19:27 | 39.32621 | -89.83942 | 31908 ft | 392 kts | 237° |
| 2026-05-05 19:28 | 39.28940 | -89.89074 | 31922 ft | 392 kts | 237° |
| 2026-05-05 19:28 | 39.25228 | -89.94228 | 31932 ft | 392 kts | 237° |
| 2026-05-05 19:29 | 39.21520 | -89.99386 | 31942 ft | 392 kts | 237° |
| 2026-05-05 19:29 | 39.17812 | -90.04531 | 31946 ft | 391 kts | 236° |
| 2026-05-05 19:30 | 39.14103 | -90.09663 | 31951 ft | 391 kts | 236° |
| 2026-05-05 19:30 | 39.10426 | -90.14749 | 31906 ft | 391 kts | 236° |
| 2026-05-05 19:31 | 39.06722 | -90.19871 | 31918 ft | 391 kts | 236° |
| 2026-05-05 19:31 | 39.03014 | -90.24989 | 31923 ft | 391 kts | 236° |
| 2026-05-05 19:32 | 38.99303 | -90.30108 | 31929 ft | 391 kts | 236° |
| 2026-05-05 19:32 | 38.95611 | -90.35183 | 31935 ft | 391 kts | 236° |
| 2026-05-05 19:33 | 38.91884 | -90.40289 | 31945 ft | 392 kts | 236° |
| 2026-05-05 19:33 | 38.88158 | -90.45387 | 31905 ft | 391 kts | 235° |
| 2026-05-05 19:34 | 38.84449 | -90.50497 | 31917 ft | 390 kts | 236° |
| 2026-05-05 19:35 | 38.79138 | -90.58368 | 31922 ft | 389 kts | 238° |
| 2026-05-05 19:35 | 38.75631 | -90.63596 | 31929 ft | 390 kts | 237° |
| 2026-05-05 19:36 | 38.72066 | -90.68835 | 31933 ft | 390 kts | 237° |
| 2026-05-05 19:36 | 38.68495 | -90.74062 | 31936 ft | 390 kts | 237° |
| 2026-05-05 19:37 | 38.64917 | -90.79283 | 31913 ft | 390 kts | 237° |
| 2026-05-05 19:37 | 38.61359 | -90.84459 | 31917 ft | 390 kts | 237° |
| 2026-05-05 19:38 | 38.57772 | -90.89674 | 31921 ft | 391 kts | 237° |
| 2026-05-05 19:38 | 38.54189 | -90.94889 | 31948 ft | 390 kts | 237° |
| 2026-05-05 19:39 | 38.50602 | -91.00101 | 31959 ft | 391 kts | 237° |
| 2026-05-05 19:39 | 38.47009 | -91.05307 | 31960 ft | 391 kts | 237° |
| 2026-05-05 19:40 | 38.43440 | -91.10476 | 31957 ft | 391 kts | 237° |
| 2026-05-05 19:40 | 38.39841 | -91.15674 | 31956 ft | 391 kts | 237° |
| 2026-05-05 19:41 | 38.36239 | -91.20868 | 31966 ft | 391 kts | 237° |
| 2026-05-05 19:41 | 38.32639 | -91.26041 | 31969 ft | 390 kts | 237° |
| 2026-05-05 19:42 | 38.29042 | -91.31212 | 31966 ft | 390 kts | 237° |
| 2026-05-05 19:42 | 38.25471 | -91.36338 | 31958 ft | 389 kts | 236° |
| 2026-05-05 19:43 | 38.21875 | -91.41488 | 31952 ft | 390 kts | 237° |
| 2026-05-05 19:43 | 38.18277 | -91.46643 | 31945 ft | 390 kts | 236° |
| 2026-05-05 19:44 | 38.14674 | -91.51790 | 31910 ft | 390 kts | 236° |
| 2026-05-05 19:44 | 38.11090 | -91.56901 | 31912 ft | 390 kts | 236° |
| 2026-05-05 19:45 | 38.07474 | -91.62046 | 31922 ft | 391 kts | 236° |
| 2026-05-05 19:45 | 38.03849 | -91.67186 | 31928 ft | 391 kts | 236° |
| 2026-05-05 19:46 | 38.00229 | -91.72317 | 31932 ft | 390 kts | 236° |
| 2026-05-05 19:46 | 37.96602 | -91.77450 | 31901 ft | 391 kts | 236° |
| 2026-05-05 19:47 | 37.92978 | -91.82588 | 31873 ft | 391 kts | 236° |
| 2026-05-05 19:47 | 37.89378 | -91.87693 | 31877 ft | 392 kts | 236° |
| 2026-05-05 19:48 | 37.85735 | -91.92827 | 31888 ft | 392 kts | 236° |
| 2026-05-05 19:48 | 37.82091 | -91.97950 | 31891 ft | 391 kts | 236° |
| 2026-05-05 19:49 | 37.78446 | -92.03060 | 31897 ft | 391 kts | 236° |
| 2026-05-05 19:49 | 37.74805 | -92.08170 | 31903 ft | 391 kts | 236° |
| 2026-05-05 19:50 | 37.71185 | -92.13244 | 31901 ft | 391 kts | 236° |
| 2026-05-05 19:50 | 37.67538 | -92.18344 | 31876 ft | 391 kts | 236° |
| 2026-05-05 19:51 | 37.63885 | -92.23445 | 31881 ft | 392 kts | 236° |
| 2026-05-05 19:51 | 37.60229 | -92.28543 | 31883 ft | 392 kts | 236° |
| 2026-05-05 19:52 | 37.56595 | -92.33605 | 31890 ft | 392 kts | 236° |
| 2026-05-05 19:52 | 37.52938 | -92.38688 | 31899 ft | 391 kts | 236° |
| 2026-05-05 19:53 | 37.49278 | -92.43765 | 31899 ft | 391 kts | 236° |
| 2026-05-05 19:53 | 37.45721 | -92.48690 | 31901 ft | 391 kts | 236° |
| 2026-05-05 19:54 | 37.42063 | -92.53754 | 31871 ft | 391 kts | 236° |
| 2026-05-05 19:54 | 37.38426 | -92.58774 | 31878 ft | 391 kts | 236° |
| 2026-05-05 19:55 | 37.34758 | -92.63819 | 31882 ft | 391 kts | 236° |
| 2026-05-05 19:55 | 37.31095 | -92.68856 | 31872 ft | 390 kts | 235° |
| 2026-05-05 19:56 | 37.27441 | -92.73892 | 31860 ft | 390 kts | 235° |
| 2026-05-05 19:56 | 37.23788 | -92.78916 | 31861 ft | 389 kts | 235° |
| 2026-05-05 19:57 | 37.20241 | -92.83787 | 31862 ft | 389 kts | 235° |
| 2026-05-05 19:57 | 37.16588 | -92.88779 | 31836 ft | 388 kts | 236° |
| 2026-05-05 19:58 | 37.12943 | -92.93753 | 31849 ft | 387 kts | 236° |
| 2026-05-05 19:58 | 37.09305 | -92.98721 | 31839 ft | 387 kts | 236° |
| 2026-05-05 19:59 | 37.05664 | -93.03679 | 31843 ft | 386 kts | 236° |
| 2026-05-05 19:59 | 37.02047 | -93.08593 | 31830 ft | 386 kts | 236° |
| 2026-05-05 20:00 | 36.98410 | -93.13541 | 31825 ft | 386 kts | 236° |
| 2026-05-05 20:00 | 36.94764 | -93.18483 | 31795 ft | 386 kts | 236° |
| 2026-05-05 20:01 | 36.91122 | -93.23417 | 31814 ft | 386 kts | 236° |
| 2026-05-05 20:01 | 36.87474 | -93.28346 | 31826 ft | 386 kts | 236° |
| 2026-05-05 20:02 | 36.83850 | -93.33236 | 31832 ft | 386 kts | 236° |
| 2026-05-05 20:02 | 36.80201 | -93.38157 | 31843 ft | 386 kts | 236° |
| 2026-05-05 20:03 | 36.76549 | -93.43071 | 31844 ft | 386 kts | 236° |
| 2026-05-05 20:03 | 36.72893 | -93.47978 | 31848 ft | 386 kts | 236° |
| 2026-05-05 20:04 | 36.69931 | -93.51953 | 31848 ft | 386 kts | 236° |
| 2026-05-05 20:04 | 36.65683 | -93.57655 | 31799 ft | 387 kts | 235° |
| 2026-05-05 20:05 | 36.62011 | -93.62561 | 31803 ft | 387 kts | 235° |
| 2026-05-05 20:05 | 36.58336 | -93.67469 | 31803 ft | 388 kts | 235° |
| 2026-05-05 20:06 | 36.55279 | -93.71551 | 31795 ft | 388 kts | 235° |
| 2026-05-05 20:06 | 36.51007 | -93.77247 | 31811 ft | 387 kts | 235° |
| 2026-05-05 20:07 | 36.47329 | -93.82137 | 31832 ft | 387 kts | 235° |
| 2026-05-05 20:07 | 36.46112 | -93.83753 | 31845 ft | 387 kts | 235° |
| 2026-05-05 20:08 | 36.40363 | -93.91365 | 31843 ft | 385 kts | 236° |
| 2026-05-05 20:08 | 36.36701 | -93.96221 | 31857 ft | 385 kts | 236° |
| 2026-05-05 20:09 | 36.33035 | -94.01075 | 31864 ft | 385 kts | 236° |
| 2026-05-05 20:09 | 36.29369 | -94.05915 | 31864 ft | 385 kts | 236° |
| 2026-05-05 20:10 | 36.25462 | -94.10462 | 31845 ft | 400 kts | 224° |
| 2026-05-05 20:10 | 36.22943 | -94.12080 | 31844 ft | 418 kts | 212° |
| 2026-05-05 20:10 | 36.20062 | -94.12991 | 31843 ft | 438 kts | 201° |
| 2026-05-05 20:11 | 36.14004 | -94.14036 | 31816 ft | 440 kts | 201° |
| 2026-05-05 20:11 | 36.07937 | -94.15076 | 31795 ft | 440 kts | 201° |
| 2026-05-05 20:12 | 36.01869 | -94.16143 | 31799 ft | 440 kts | 201° |
| 2026-05-05 20:12 | 35.95844 | -94.17203 | 31804 ft | 441 kts | 201° |
| 2026-05-05 20:13 | 35.89771 | -94.18273 | 31806 ft | 441 kts | 201° |
| 2026-05-05 20:13 | 35.83700 | -94.19343 | 31764 ft | 441 kts | 201° |
| 2026-05-05 20:14 | 35.77627 | -94.20409 | 31758 ft | 441 kts | 201° |
| 2026-05-05 20:14 | 35.71560 | -94.21462 | 31772 ft | 440 kts | 201° |
| 2026-05-05 20:15 | 35.65550 | -94.22507 | 31749 ft | 439 kts | 201° |
| 2026-05-05 20:15 | 35.59499 | -94.23560 | 31749 ft | 440 kts | 201° |
| 2026-05-05 20:16 | 35.53442 | -94.24609 | 31749 ft | 440 kts | 201° |
| 2026-05-05 20:16 | 35.47387 | -94.25662 | 31751 ft | 439 kts | 201° |
| 2026-05-05 20:17 | 35.41418 | -94.26954 | 31720 ft | 424 kts | 210° |
| 2026-05-05 20:17 | 35.38763 | -94.28235 | 31725 ft | 409 kts | 219° |
| 2026-05-05 20:17 | 35.36366 | -94.29999 | 31729 ft | 396 kts | 227° |
| 2026-05-05 20:18 | 35.32259 | -94.34327 | 31735 ft | 389 kts | 231° |
| 2026-05-05 20:18 | 35.28206 | -94.38725 | 31739 ft | 390 kts | 231° |
| 2026-05-05 20:19 | 35.24146 | -94.43121 | 31745 ft | 390 kts | 231° |
| 2026-05-05 20:19 | 35.20081 | -94.47517 | 31746 ft | 390 kts | 231° |
| 2026-05-05 20:20 | 35.16041 | -94.51880 | 31719 ft | 390 kts | 231° |
| 2026-05-05 20:20 | 35.11969 | -94.56274 | 31729 ft | 391 kts | 231° |
| 2026-05-05 20:21 | 35.07885 | -94.60671 | 31741 ft | 391 kts | 231° |
| 2026-05-05 20:21 | 35.03806 | -94.65069 | 31739 ft | 391 kts | 231° |
| 2026-05-05 20:22 | 34.99725 | -94.69457 | 31760 ft | 391 kts | 231° |
| 2026-05-05 20:22 | 34.95638 | -94.73840 | 31756 ft | 391 kts | 231° |
| 2026-05-05 20:23 | 34.91577 | -94.78191 | 31761 ft | 391 kts | 231° |
| 2026-05-05 20:23 | 34.87491 | -94.82571 | 31735 ft | 392 kts | 231° |
| 2026-05-05 20:24 | 34.83393 | -94.86947 | 31750 ft | 392 kts | 231° |
| 2026-05-05 20:24 | 34.79275 | -94.91291 | 31769 ft | 391 kts | 230° |
| 2026-05-05 20:25 | 34.75106 | -94.95521 | 31782 ft | 389 kts | 230° |
| 2026-05-05 20:25 | 34.70960 | -94.99707 | 31789 ft | 386 kts | 230° |
| 2026-05-05 20:26 | 34.66881 | -95.03853 | 31782 ft | 384 kts | 230° |
| 2026-05-05 20:26 | 34.62793 | -95.08024 | 31747 ft | 383 kts | 230° |
| 2026-05-05 20:27 | 34.58717 | -95.12183 | 31750 ft | 383 kts | 230° |
| 2026-05-05 20:27 | 34.54635 | -95.16335 | 31755 ft | 383 kts | 230° |
| 2026-05-05 20:28 | 34.50554 | -95.20472 | 31756 ft | 382 kts | 230° |
| 2026-05-05 20:28 | 34.46473 | -95.24603 | 31755 ft | 382 kts | 230° |
| 2026-05-05 20:29 | 34.42417 | -95.28698 | 31752 ft | 382 kts | 230° |
| 2026-05-05 20:29 | 34.38326 | -95.32818 | 31756 ft | 382 kts | 230° |
| 2026-05-05 20:30 | 34.34231 | -95.36927 | 31732 ft | 382 kts | 230° |
| 2026-05-05 20:30 | 34.30145 | -95.41032 | 31749 ft | 382 kts | 230° |
| 2026-05-05 20:31 | 34.26063 | -95.45134 | 31760 ft | 382 kts | 230° |
| 2026-05-05 20:31 | 34.22002 | -95.49198 | 31765 ft | 382 kts | 229° |
| 2026-05-05 20:32 | 34.17912 | -95.53278 | 31769 ft | 381 kts | 229° |
| 2026-05-05 20:32 | 34.13823 | -95.57353 | 31771 ft | 381 kts | 229° |
| 2026-05-05 20:33 | 34.09738 | -95.61435 | 31770 ft | 381 kts | 230° |
| 2026-05-05 20:33 | 34.05655 | -95.65510 | 31726 ft | 381 kts | 229° |
| 2026-05-05 20:34 | 34.01591 | -95.69548 | 31726 ft | 381 kts | 229° |
| 2026-05-05 20:34 | 33.97485 | -95.73619 | 31151 ft | 385 kts | 229° |
| 2026-05-05 20:34 | 33.95403 | -95.75685 | 30276 ft | 389 kts | 229° |
| 2026-05-05 20:35 | 33.93339 | -95.77736 | 29949 ft | 380 kts | 229° |
| 2026-05-05 20:35 | 33.91320 | -95.79744 | 29450 ft | 374 kts | 229° |
| 2026-05-05 20:35 | 33.89329 | -95.81729 | 28872 ft | 369 kts | 230° |
| 2026-05-05 20:35 | 33.87364 | -95.83696 | 28285 ft | 366 kts | 230° |
| 2026-05-05 20:36 | 33.85417 | -95.85646 | 27705 ft | 363 kts | 230° |
| 2026-05-05 20:36 | 33.83487 | -95.87579 | 27144 ft | 360 kts | 230° |
| 2026-05-05 20:36 | 33.81569 | -95.89491 | 26584 ft | 356 kts | 229° |
| 2026-05-05 20:36 | 33.79700 | -95.91334 | 25707 ft | 350 kts | 229° |
| 2026-05-05 20:37 | 33.77830 | -95.93178 | 24811 ft | 345 kts | 229° |
| 2026-05-05 20:37 | 33.76579 | -95.94411 | 24238 ft | 343 kts | 229° |
| 2026-05-05 20:37 | 33.74155 | -95.96798 | 23176 ft | 338 kts | 229° |
| 2026-05-05 20:37 | 33.72342 | -95.98589 | 22586 ft | 338 kts | 229° |
| 2026-05-05 20:38 | 33.70529 | -96.00383 | 22075 ft | 338 kts | 228° |
| 2026-05-05 20:38 | 33.68717 | -96.02167 | 21562 ft | 336 kts | 228° |
| 2026-05-05 20:38 | 33.66913 | -96.03936 | 21052 ft | 334 kts | 227° |
| 2026-05-05 20:38 | 33.65119 | -96.05694 | 20545 ft | 332 kts | 227° |
| 2026-05-05 20:39 | 33.63338 | -96.07446 | 20049 ft | 331 kts | 226° |
| 2026-05-05 20:39 | 33.61559 | -96.09203 | 19537 ft | 331 kts | 226° |
| 2026-05-05 20:39 | 33.59802 | -96.10941 | 19036 ft | 332 kts | 225° |
| 2026-05-05 20:39 | 33.58021 | -96.12696 | 18533 ft | 331 kts | 225° |
| 2026-05-05 20:40 | 33.56242 | -96.14440 | 18022 ft | 330 kts | 224° |
| 2026-05-05 20:40 | 33.54470 | -96.16172 | 17586 ft | 326 kts | 224° |
| 2026-05-05 20:40 | 33.52711 | -96.17891 | 17187 ft | 326 kts | 224° |
| 2026-05-05 20:40 | 33.50953 | -96.19609 | 16718 ft | 326 kts | 224° |
| 2026-05-05 20:41 | 33.49201 | -96.21320 | 16225 ft | 324 kts | 224° |
| 2026-05-05 20:41 | 33.47467 | -96.23015 | 15893 ft | 317 kts | 224° |
| 2026-05-05 20:41 | 33.45789 | -96.24652 | 15710 ft | 305 kts | 224° |
| 2026-05-05 20:41 | 33.44236 | -96.26327 | 15416 ft | 296 kts | 232° |
| 2026-05-05 20:42 | 33.42896 | -96.28186 | 15058 ft | 295 kts | 232° |
| 2026-05-05 20:42 | 33.41572 | -96.30023 | 14541 ft | 297 kts | 232° |
| 2026-05-05 20:42 | 33.40217 | -96.31895 | 14072 ft | 296 kts | 232° |
| 2026-05-05 20:42 | 33.38862 | -96.33759 | 13523 ft | 299 kts | 232° |
| 2026-05-05 20:43 | 33.37507 | -96.35618 | 13152 ft | 294 kts | 232° |
| 2026-05-05 20:43 | 33.36163 | -96.37458 | 12688 ft | 293 kts | 232° |
| 2026-05-05 20:43 | 33.34840 | -96.39270 | 12503 ft | 283 kts | 232° |
| 2026-05-05 20:43 | 33.33574 | -96.41008 | 12277 ft | 271 kts | 233° |
| 2026-05-05 20:44 | 33.32568 | -96.42847 | 11879 ft | 257 kts | 246° |
| 2026-05-05 20:44 | 33.31943 | -96.44852 | 11620 ft | 260 kts | 252° |
| 2026-05-05 20:44 | 33.31367 | -96.46906 | 11343 ft | 261 kts | 251° |
| 2026-05-05 20:44 | 33.30785 | -96.48967 | 11073 ft | 260 kts | 251° |
| 2026-05-05 20:45 | 33.29654 | -96.52979 | 10504 ft | 254 kts | 252° |
| 2026-05-05 20:45 | 33.29095 | -96.54972 | 10197 ft | 252 kts | 252° |
| 2026-05-05 20:45 | 33.28688 | -96.56967 | 9939 ft | 250 kts | 263° |
| 2026-05-05 20:46 | 33.28591 | -96.59043 | 9639 ft | 250 kts | 265° |
| 2026-05-05 20:46 | 33.28499 | -96.61115 | 9314 ft | 249 kts | 265° |
| 2026-05-05 20:46 | 33.28405 | -96.63182 | 9017 ft | 249 kts | 265° |
| 2026-05-05 20:46 | 33.28312 | -96.65246 | 8727 ft | 248 kts | 265° |
| 2026-05-05 20:47 | 33.28217 | -96.67296 | 8423 ft | 247 kts | 265° |
| 2026-05-05 20:47 | 33.28126 | -96.69234 | 8145 ft | 246 kts | 265° |
| 2026-05-05 20:47 | 33.28030 | -96.71275 | 7850 ft | 246 kts | 265° |
| 2026-05-05 20:47 | 33.27936 | -96.73310 | 7558 ft | 245 kts | 265° |
| 2026-05-05 20:48 | 33.27841 | -96.75297 | 7356 ft | 240 kts | 265° |
| 2026-05-05 20:48 | 33.27746 | -96.77281 | 7056 ft | 239 kts | 265° |
| 2026-05-05 20:48 | 33.27650 | -96.79256 | 6760 ft | 239 kts | 265° |
| 2026-05-05 20:48 | 33.27554 | -96.81230 | 6491 ft | 238 kts | 265° |
| 2026-05-05 20:49 | 33.27460 | -96.83199 | 6207 ft | 237 kts | 266° |
| 2026-05-05 20:49 | 33.27373 | -96.85150 | 5984 ft | 233 kts | 266° |
| 2026-05-05 20:49 | 33.27302 | -96.87086 | 5641 ft | 234 kts | 266° |
| 2026-05-05 20:49 | 33.27233 | -96.89029 | 5340 ft | 234 kts | 267° |
| 2026-05-05 20:50 | 33.27165 | -96.90970 | 5031 ft | 234 kts | 267° |
| 2026-05-05 20:50 | 33.27119 | -96.92257 | 4808 ft | 234 kts | 267° |
| 2026-05-05 20:50 | 33.27025 | -96.94834 | 4453 ft | 232 kts | 268° |
| 2026-05-05 20:50 | 33.26955 | -96.96719 | 4326 ft | 222 kts | 266° |
| 2026-05-05 20:51 | 33.26605 | -96.98464 | 4206 ft | 214 kts | 243° |
| 2026-05-05 20:51 | 33.25671 | -96.99790 | 4082 ft | 208 kts | 217° |
| 2026-05-05 20:51 | 33.24371 | -97.00453 | 3947 ft | 203 kts | 192° |
| 2026-05-05 20:51 | 33.22974 | -97.00594 | 3735 ft | 199 kts | 188° |
| 2026-05-05 20:52 | 33.21605 | -97.00708 | 3505 ft | 196 kts | 188° |
| 2026-05-05 20:52 | 33.20237 | -97.00829 | 3176 ft | 198 kts | 189° |
| 2026-05-05 20:52 | 33.18877 | -97.00955 | 2981 ft | 196 kts | 188° |
| 2026-05-05 20:52 | 33.17547 | -97.01086 | 2818 ft | 185 kts | 188° |
| 2026-05-05 20:53 | 33.16306 | -97.01205 | 3199 ft | 184 kts | 189° |
| 2026-05-05 20:53 | 33.15021 | -97.01315 | 3154 ft | 184 kts | 190° |
| 2026-05-05 20:53 | 33.13758 | -97.01419 | 3083 ft | 183 kts | 189° |
| 2026-05-05 20:53 | 33.12599 | -97.01512 | 3038 ft | 182 kts | 189° |
| 2026-05-05 20:54 | 33.11329 | -97.01617 | 3009 ft | 183 kts | 189° |
| 2026-05-05 20:54 | 33.10487 | -97.01688 | 3004 ft | 184 kts | 189° |
| 2026-05-05 20:54 | 33.09211 | -97.01795 | 3003 ft | 182 kts | 190° |
| 2026-05-05 20:54 | 33.08030 | -97.01887 | 2988 ft | 162 kts | 190° |
| 2026-05-05 20:55 | 33.06940 | -97.01976 | 2996 ft | 153 kts | 192° |
| 2026-05-05 20:55 | 33.05900 | -97.02063 | 2996 ft | 149 kts | 191° |
| 2026-05-05 20:55 | 33.04530 | -97.02183 | 2997 ft | 148 kts | 190° |
| 2026-05-05 20:55 | 33.03515 | -97.02271 | 2996 ft | 145 kts | 190° |
| 2026-05-05 20:56 | 33.02831 | -97.02354 | 2902 ft | 149 kts | 191° |
| 2026-05-05 20:56 | 33.01801 | -97.02459 | 2596 ft | 146 kts | 189° |
| 2026-05-05 20:56 | 33.00798 | -97.02510 | 2364 ft | 147 kts | 188° |
| 2026-05-05 20:56 | 32.99828 | -97.02535 | 2171 ft | 146 kts | 187° |
| 2026-05-05 20:57 | 32.98456 | -97.02555 | 1916 ft | 148 kts | 187° |
| 2026-05-05 20:57 | 32.97778 | -97.02560 | 1790 ft | 146 kts | 187° |
| 2026-05-05 20:57 | 32.96767 | -97.02568 | 1606 ft | 145 kts | 186° |
| 2026-05-05 20:57 | 32.95743 | -97.02575 | 1429 ft | 147 kts | 183° |
| 2026-05-05 20:58 | 32.94746 | -97.02580 | 1259 ft | 139 kts | 184° |
| 2026-05-05 20:58 | 32.93771 | -97.02585 | 1058 ft | 141 kts | 181° |
| 2026-05-05 20:58 | 32.92789 | -97.02590 | 862 ft | 142 kts | 184° |
| 2026-05-05 20:58 | 32.91834 | -97.02584 | 658 ft | 138 kts | 186° |
| 2026-05-05 20:59 | 32.90907 | -97.02605 | 569 ft | 118 kts | 181° |
| 2026-05-05 20:59 | 32.90251 | -97.02609 | 575 ft | 75 kts | 179° |
| 2026-05-05 20:59 | 32.89938 | -97.02676 | 570 ft | 34 kts | 213° |
| 2026-05-05 20:59 | 32.89740 | -97.02806 | 570 ft | 31 kts | 201° |
| 2026-05-05 21:00 | 32.89550 | -97.02804 | 573 ft | 27 kts | 180° |
| 2026-05-05 21:00 | 32.89406 | -97.02828 | 575 ft | 15 kts | 231° |
| 2026-05-05 21:00 | 32.89395 | -97.02944 | 575 ft | 14 kts | 270° |
| 2026-05-05 21:00 | 32.89394 | -97.03064 | 576 ft | 15 kts | 269° |
| 2026-05-05 21:01 | 32.89393 | -97.03200 | 577 ft | 17 kts | 269° |
| 2026-05-05 21:01 | 32.89397 | -97.03323 | 585 ft | 13 kts | 268° |
| 2026-05-05 21:01 | 32.89393 | -97.03465 | 586 ft | 21 kts | 268° |
| 2026-05-05 21:01 | 32.89323 | -97.03565 | 585 ft | 18 kts | 160° |
| 2026-05-05 21:02 | 32.89214 | -97.03481 | 584 ft | 20 kts | 153° |
| 2026-05-05 21:02 | 32.89081 | -97.03435 | 584 ft | 22 kts | 172° |
| 2026-05-05 21:02 | 32.88928 | -97.03460 | 584 ft | 19 kts | 197° |
| 2026-05-05 21:02 | 32.88850 | -97.03511 | 584 ft | 10 kts | 238° |
| 2026-05-05 21:03 | 32.88867 | -97.03546 | 584 ft | 5 kts | 304° |
| 2026-05-05 21:03 | 32.88878 | -97.03561 | 584 ft | 0 kts | 311° |